Rising Sun, Montana
Current Conditions -  °F | °C
As of 7:55 PM on Wednesday 22 Oct 2014 (Local Time) from KGPI Reporting Station
Broken Clouds Broken Clouds  
Wind Chill: 52°   Ceiling: 10000
Heat Index: 52°   Visibility: 10mi
Dew Point: 37°   Wind: 6mph
Humidity: 57%   Direction: 170°S
Pressure: 29.86"   Gusts: NA
Location:  48.7064°N, 113.591°W
Report Text: KGPI 230155Z 17005KT 10SM SCT060 BKN100 11/03 A2986 RMK AO2 SLP122 T01110028
Loading
Personal Weather Stations






























Interactive Weather Map
Tropical Storm Tracking
New forecast layout! Learn more

10-Day Weather Forecast

Advertisements
Track Severe Weather on mobile